Terminal Aerodrome Forecast
Issued by NWS

Home | Current Version | Previous Version | Text Only | Print | Product List | Glossary On
Versions: 1 2 3 4 5 6 7 8 9 10 11 12 13 14 15 16 17
000
FTUS44 KTSA 180520
TAFFYV
TAF
KFYV 180520Z 1806/1906 19012G20KT P6SM SCT030 BKN250
      TEMPO 1808/1812 BKN030
     FM181200 22013G22KT P6SM BKN250
     FM181500 31022G31KT P6SM VCSH BKN035
     FM181900 32018G28KT P6SM BKN050
     FM190000 32009KT P6SM SKC=

USA.gov is the U.S. government's official web portal to all federal, state and local government web resources and services.